MAPA DE AEROPUERTO

INFORMACIÓN METAR y TAF

METAR FOR UKBB
ADDS - METARS form results

(0345 UTC 26 February 2021)
Data provider http://aviationweather.gov/metar/data/
 
METAR text: UKBB 260330Z 23004MPS 6000 NSC 00/M01 Q1023 R18L/190055 NOSIG
Conditions at: UKBB (BORISPOL'/KIEV , UA) observed 0330 UTC 26 February 2021
Temperature: 0.0°C (32°F)
Dewpoint: -1.0°C (30°F) [RH = 93%]
Pressure (altimeter): 30.21 inches Hg (1023.0 mb)
Winds: from the SW (230 degrees) at 9 MPH (8 knots; 4.1 m/s)
Visibility: 4 miles ( 6 km)
Ceiling: at least 12,000 feet AGL
Clouds: sky clear below 12,000 feet AGL
Weather: no significant weather observed at this time

METAR text: UKBB 260300Z 24003MPS 6000 NSC 03/01 Q1024 R18L/190055 NOSIG
Conditions at: UKBB (BORISPOL'/KIEV , UA) observed 0300 UTC 26 February 2021
Temperature: 3.0°C (37°F)
Dewpoint: 1.0°C (34°F) [RH = 87%]
Pressure (altimeter): 30.24 inches Hg (1024.0 mb)
Winds: from the WSW (240 degrees) at 7 MPH (6 knots; 3.1 m/s)
Visibility: 4 miles ( 6 km)
Ceiling: at least 12,000 feet AGL
Clouds: sky clear below 12,000 feet AGL
Weather: no significant weather observed at this time

Forecast for: UKBB (BORISPOL'/KIEV , UA)
Text: TAF UKBB 252301Z 2600/2624 24005MPS 6000 SCT015 TX12/2612Z TN00/2605Z
Forecast period: 0000 to 0900 UTC 26 February 2021
Forecast type: FROM: standard forecast or significant change
Winds: from the WSW (240 degrees) at 12 MPH (10 knots; 5.1 m/s)
Visibility: 4 miles (6 km)
Ceiling: at least 12,000 feet AGL
Clouds: scattered clouds at 1500 feet AGL
Weather: no significant weather forecast for this period
Text: TEMPO 2600/2608 0600 FG VV002
Forecast period: 0000 to 0800 UTC 26 February 2021
Forecast type: TEMPORARY: The following changes expected for less than half the time period
Visibility: 0.37 miles (0.60 km)
Ceiling: indefinite ceiling with vertical visibility of 200 feet AGL
Clouds: obscured sky
Weather: FG  (fog)
Text: BECMG 2609/2611 27005G11MPS
Forecast period: 0900 UTC 26 February 2021 to 0000 UTC 27 February 2021
Forecast type: BECOMING: Conditions expected to become as follows by 1100 UTC 26 February 2021
Winds: from the W (270 degrees) at 12 MPH (10 knots; 5.1 m/s)
gusting to 24 MPH (21 knots; 10.8 m/s)
Visibility: 4 miles (6 km)
Ceiling: at least 12,000 feet AGL
Clouds: scattered clouds at 1500 feet AGL
Weather: no significant weather forecast for this period
Text: TEMPO 2616/2624 BKN006
Forecast period: 1600 UTC 26 February 2021 to 0000 UTC 27 February 2021
Forecast type: TEMPORARY: The following changes expected for less than half the time period
Visibility: missing
Ceiling: 600 feet AGL
Clouds: broken clouds at 600 feet AGL
Weather: no significant weather forecast for this period